Time;durP1;ratioP1;P1;durP2;ratioP2;P2;SDS_P1;SDS_P2;PMS_P1;PMS_P2;Temp;Humidity;BMP_temperature;BMP_pressure;BME280_temperature;BME280_humidity;BME280_pressure;Samples;Min_cycle;Max_cycle;Signal;HPM_P1;HPM_P2
2021/12/12 00:01:34;;;;;;;23.35;8.30;;;;;;;4.43;80.00;100831.41;5072867;28;20050;-85
2021/12/12 00:04:14;;;;;;;11.00;7.25;;;;;;;4.51;80.14;100831.06;5010434;28;20574;-85
2021/12/12 00:06:45;;;;;;;24.30;9.10;;;;;;;4.50;79.96;100837.22;5059848;28;20055;-85
2021/12/12 00:09:40;;;;;;;17.27;9.13;;;;;;;4.41;79.71;100841.16;5075108;28;20434;-85
2021/12/12 00:12:15;;;;;;;16.95;6.78;;;;;;;4.45;79.83;100850.63;5024550;28;20056;-86
2021/12/12 00:14:43;;;;;;;16.95;7.55;;;;;;;4.47;80.07;100851.38;5058872;28;20074;-85
2021/12/12 00:17:12;;;;;;;20.25;8.07;;;;;;;4.46;79.73;100844.41;5061575;28;20040;-86
2021/12/12 00:19:40;;;;;;;14.57;7.13;;;;;;;4.46;79.50;100849.69;5060629;28;20153;-85
2021/12/12 00:22:12;;;;;;;12.63;5.88;;;;;;;4.44;79.49;100850.66;5058058;28;20581;-84
2021/12/12 00:24:40;;;;;;;12.55;5.45;;;;;;;4.43;79.64;100859.50;5078858;28;20476;-85
2021/12/12 00:27:07;;;;;;;24.13;7.70;;;;;;;4.43;79.50;100856.88;5075511;28;20055;-84
2021/12/12 00:29:34;;;;;;;16.83;6.78;;;;;;;4.41;79.61;100856.94;5061191;28;20051;-85
2021/12/12 00:32:05;;;;;;;11.80;6.10;;;;;;;4.39;79.44;100856.13;5074756;28;20498;-85
2021/12/12 00:34:35;;;;;;;9.75;5.82;;;;;;;4.39;79.25;100856.13;5074672;28;20500;-85
2021/12/12 00:37:07;;;;;;;15.95;6.20;;;;;;;4.36;79.21;100856.28;5050804;28;20058;-85
2021/12/12 00:40:16;;;;;;;17.30;5.60;;;;;;;4.25;79.07;100856.78;5067582;28;20514;-85
2021/12/12 00:42:43;;;;;;;13.55;5.97;;;;;;;4.33;79.10;100861.69;4991598;28;20110;-85
2021/12/12 00:45:13;;;;;;;11.52;5.13;;;;;;;4.31;79.00;100853.88;5065500;28;20036;-85
2021/12/12 00:47:40;;;;;;;14.80;5.47;;;;;;;4.30;78.95;100856.56;5071331;28;20052;-84
2021/12/12 00:50:18;;;;;;;14.88;6.15;;;;;;;4.29;78.78;100868.00;5074888;28;20056;-85
2021/12/12 00:52:46;;;;;;;11.85;5.30;;;;;;;4.29;78.80;100868.00;5030803;28;20047;-85
2021/12/12 00:55:13;;;;;;;15.60;5.45;;;;;;;4.26;78.69;100861.13;5080258;28;20044;-85
2021/12/12 00:57:40;;;;;;;15.13;6.00;;;;;;;4.25;78.69;100869.06;5077238;28;20048;-86
2021/12/12 01:00:09;;;;;;;10.68;4.65;;;;;;;4.23;78.44;100863.88;5074397;28;20074;-85
2021/12/12 01:02:38;;;;;;;11.70;5.22;;;;;;;4.23;78.42;100860.41;5073203;28;20619;-85
2021/12/12 01:05:06;;;;;;;21.08;5.32;;;;;;;4.21;78.44;100867.50;5076388;28;20040;-85
2021/12/12 01:07:37;;;;;;;13.57;4.68;;;;;;;4.19;78.38;100874.59;5076148;28;20067;-85
2021/12/12 01:10:24;;;;;;;14.23;5.60;;;;;;;4.11;78.51;100872.31;5075268;28;20114;-85
2021/12/12 01:12:53;;;;;;;17.45;5.00;;;;;;;4.19;78.44;100872.81;5042600;28;20039;-85
2021/12/12 01:15:38;;;;;;;15.10;5.47;;;;;;;4.15;78.17;100871.28;5061556;28;20051;-85
2021/12/12 01:18:16;;;;;;;10.52;5.32;;;;;;;4.13;78.22;100878.38;5039544;28;20044;-85
2021/12/12 01:20:51;;;;;;;10.27;4.07;;;;;;;4.14;78.32;100882.69;5059672;28;20078;-85
2021/12/12 01:23:23;;;;;;;14.05;5.20;;;;;;;4.13;78.17;100871.34;5076520;28;20036;-84
2021/12/12 01:25:51;;;;;;;15.30;5.32;;;;;;;4.12;78.57;100877.53;5082615;28;20044;-85
2021/12/12 01:28:23;;;;;;;11.00;5.55;;;;;;;4.12;78.12;100887.16;5080426;28;20055;-85
2021/12/12 01:34:35;;;;;;;8.63;4.63;;;;;;;4.09;78.27;100900.44;5035325;28;20101;-85
2021/12/12 01:40:06;;;;;;;10.13;4.60;;;;;;;4.03;78.12;100903.34;5038094;28;20063;-85
2021/12/12 01:42:54;;;;;;;12.65;4.55;;;;;;;4.05;77.91;100899.75;5060407;28;20048;-85
2021/12/12 01:45:25;;;;;;;11.80;4.43;;;;;;;4.03;77.96;100901.56;5012885;28;20109;-85
2021/12/12 01:52:28;;;;;;;14.07;5.15;;;;;;;4.01;78.27;100916.56;5077701;28;20085;-85
2021/12/12 01:55:11;;;;;;;11.98;4.45;;;;;;;3.99;78.16;100912.28;5087979;28;21855;-85
2021/12/12 01:57:39;;;;;;;9.73;5.10;;;;;;;4.00;78.21;100914.84;5078148;28;20055;-85
2021/12/12 02:00:21;;;;;;;13.07;4.28;;;;;;;3.98;78.03;100911.44;5055991;28;20055;-85
2021/12/12 02:02:49;;;;;;;12.73;4.40;;;;;;;4.01;78.25;100926.22;5077879;28;20495;-85
2021/12/12 02:05:17;;;;;;;14.02;4.43;;;;;;;4.02;78.00;100922.66;5057855;28;20195;-84
2021/12/12 02:07:51;;;;;;;16.38;5.30;;;;;;;4.00;78.04;100920.13;5086498;28;20044;-85
2021/12/12 02:10:26;;;;;;;10.52;4.45;;;;;;;4.02;77.99;100923.53;5047445;28;20048;-85
2021/12/12 02:12:54;;;;;;;19.98;5.43;;;;;;;4.04;78.23;100918.19;5063237;28;20044;-86
2021/12/12 02:15:21;;;;;;;12.45;4.32;;;;;;;4.02;78.24;100923.53;5092899;27;20506;-86
2021/12/12 02:17:49;;;;;;;11.98;4.03;;;;;;;4.03;78.18;100917.34;5094411;28;20040;-84
2021/12/12 02:20:33;;;;;;;9.38;4.03;;;;;;;4.01;78.09;100916.56;5060939;28;20063;-85
2021/12/12 02:36:59;;;;;;;23.70;5.00;;;;;;;4.00;78.31;100920.13;5063160;28;20044;-85
2021/12/12 02:39:25;;;;;;;10.27;4.35;;;;;;;4.00;78.02;100912.22;5065159;28;20044;-85
2021/12/12 02:41:56;;;;;;;11.80;4.65;;;;;;;3.99;78.04;100914.91;5080734;28;20043;-85
2021/12/12 02:44:28;;;;;;;8.57;4.32;;;;;;;4.00;78.20;100908.75;5063574;28;20046;-85
2021/12/12 02:46:59;;;;;;;8.23;3.80;;;;;;;3.99;78.02;100907.03;5092770;28;20093;-86
2021/12/12 02:52:17;;;;;;;11.10;3.92;;;;;;;3.95;77.59;100900.22;5045433;28;20052;-84
2021/12/12 02:54:44;;;;;;;10.68;3.75;;;;;;;3.96;77.78;100917.69;5095107;27;20632;-85
2021/12/12 02:57:12;;;;;;;14.55;3.92;;;;;;;3.95;77.72;100923.88;5047249;28;20047;-85
2021/12/12 02:59:41;;;;;;;10.07;3.80;;;;;;;3.93;77.73;100913.41;5078551;28;20068;-85
2021/12/12 03:02:15;;;;;;;10.90;4.25;;;;;;;3.92;77.39;100912.56;5056085;28;20048;-85
2021/12/12 03:04:42;;;;;;;7.15;3.70;;;;;;;3.93;77.78;100908.16;5091106;28;20054;-85
2021/12/12 03:07:10;;;;;;;9.68;3.70;;;;;;;3.91;77.78;100910.00;5069008;28;20360;-85
2021/12/12 03:09:41;;;;;;;6.72;3.45;;;;;;;3.89;77.26;100911.81;5036047;28;20044;-85
2021/12/12 03:12:17;;;;;;;8.80;4.15;;;;;;;3.87;77.38;100913.69;5073038;28;20052;-85
2021/12/12 03:14:46;;;;;;;11.60;4.10;;;;;;;3.88;77.17;100918.00;5060967;28;20067;-84
2021/12/12 03:17:17;;;;;;;7.70;3.65;;;;;;;3.85;77.05;100910.28;5064539;28;20048;-85
2021/12/12 03:19:52;;;;;;;13.07;4.15;;;;;;;3.83;77.06;100907.69;5049768;28;20376;-85
2021/12/12 03:22:20;;;;;;;9.88;3.65;;;;;;;3.83;77.25;100918.22;5048351;28;20433;-85
2021/12/12 03:24:48;;;;;;;7.35;3.42;;;;;;;3.83;77.08;100912.94;5074495;28;20044;-84
2021/12/12 03:27:15;;;;;;;7.40;3.75;;;;;;;3.82;76.98;100916.50;5094794;28;20047;-85
2021/12/12 03:29:45;;;;;;;10.18;3.92;;;;;;;3.82;76.98;100910.41;5041508;28;20093;-84
2021/12/12 03:32:16;;;;;;;9.40;3.40;;;;;;;3.80;76.98;100907.84;5092313;28;20044;-85
2021/12/12 03:34:47;;;;;;;10.82;4.07;;;;;;;3.77;76.70;100915.84;5093704;28;20047;-85
2021/12/12 03:37:17;;;;;;;11.85;4.13;;;;;;;3.77;76.74;100912.38;5083693;28;20048;-85
2021/12/12 03:39:50;;;;;;;9.73;3.42;;;;;;;3.74;76.77;100902.88;5075811;28;20055;-85
2021/12/12 03:42:19;;;;;;;12.40;3.72;;;;;;;3.74;76.72;100907.25;5107109;27;20490;-85
2021/12/12 03:44:47;;;;;;;6.00;3.63;;;;;;;3.74;76.91;100907.25;5073615;28;20048;-85
2021/12/12 03:47:39;;;;;;;13.40;4.20;;;;;;;3.71;76.69;100916.09;5077298;28;20094;-85
2021/12/12 03:50:10;;;;;;;10.80;4.28;;;;;;;3.71;76.82;100918.72;5056373;28;20487;-85
2021/12/12 03:52:37;;;;;;;8.02;3.72;;;;;;;3.74;76.90;100912.50;5086880;28;20051;-85
2021/12/12 03:55:05;;;;;;;17.52;4.43;;;;;;;3.74;76.93;100904.59;5046835;28;20045;-85
2021/12/12 03:57:32;;;;;;;13.43;4.30;;;;;;;3.73;77.05;100906.38;5057838;28;20045;-86
2021/12/12 04:00:00;;;;;;;13.13;5.05;;;;;;;3.74;77.06;100913.38;5029513;28;20502;-84
2021/12/12 04:02:29;;;;;;;12.43;5.05;;;;;;;3.73;76.75;100916.91;5071274;28;20102;-85
2021/12/12 04:04:57;;;;;;;11.55;4.53;;;;;;;3.74;77.01;100917.75;5074425;28;20047;-85
2021/12/12 04:07:26;;;;;;;9.43;3.78;;;;;;;3.73;76.80;100916.91;5065452;28;20493;-85
2021/12/12 04:09:55;;;;;;;10.32;4.03;;;;;;;3.74;76.90;100917.75;5093895;27;20090;-85
2021/12/12 04:12:22;;;;;;;7.30;3.10;;;;;;;3.72;77.23;100912.56;5085219;28;20051;-84
2021/12/12 04:14:50;;;;;;;10.90;3.70;;;;;;;3.74;77.16;100921.25;5062266;28;20043;-85
2021/12/12 04:17:21;;;;;;;10.43;4.50;;;;;;;3.72;77.03;100925.72;5079050;28;20044;-85
2021/12/12 04:19:49;;;;;;;9.25;4.30;;;;;;;3.74;76.84;100925.63;5052124;28;20381;-85
2021/12/12 04:22:16;;;;;;;14.88;4.40;;;;;;;3.72;76.67;100922.25;5062009;28;20055;-85
2021/12/12 04:24:45;;;;;;;11.73;4.72;;;;;;;3.72;76.87;100922.25;5075133;28;20049;-84
2021/12/12 04:27:14;;;;;;;11.50;4.50;;;;;;;3.72;76.83;100935.38;5057180;28;20380;-85
2021/12/12 04:29:45;;;;;;;10.27;5.10;;;;;;;3.71;76.89;100934.50;5074340;28;20053;-85
2021/12/12 04:32:28;;;;;;;10.73;5.13;;;;;;;3.68;76.74;100942.50;5077031;28;20048;-85
2021/12/12 04:34:59;;;;;;;10.48;5.70;;;;;;;3.69;77.11;100942.47;5076656;28;20497;-84
2021/12/12 04:37:27;;;;;;;10.25;5.50;;;;;;;3.71;77.28;100939.75;5076613;28;20082;-85
2021/12/12 04:39:57;;;;;;;15.32;5.60;;;;;;;3.70;77.28;100938.91;5075940;28;20453;-85
2021/12/12 04:42:30;;;;;;;11.55;5.60;;;;;;;3.68;77.11;100942.50;5064730;28;20089;-86
2021/12/12 04:45:24;;;;;;;14.45;5.43;;;;;;;3.64;77.27;100944.41;5080471;28;20382;-85
2021/12/12 04:51:11;;;;;;;12.55;5.10;;;;;;;3.60;77.20;100949.88;5033260;28;19927;-85
2021/12/12 04:53:49;;;;;;;14.82;5.00;;;;;;;3.61;76.97;100952.44;5043804;28;20059;-84
2021/12/12 04:56:20;;;;;;;12.02;5.05;;;;;;;3.64;77.13;100962.81;5083434;28;20043;-85
2021/12/12 04:59:16;;;;;;;15.65;5.00;;;;;;;3.56;76.89;100951.78;5080611;28;20043;-84
2021/12/12 05:02:19;;;;;;;12.38;4.45;;;;;;;3.56;76.84;100940.38;5048107;28;20044;-85
2021/12/12 05:05:07;;;;;;;13.35;4.70;;;;;;;3.57;76.81;100950.00;5037735;28;20129;-85
2021/12/12 05:07:38;;;;;;;11.63;4.97;;;;;;;3.60;76.84;100950.72;5061990;28;20577;-85
2021/12/12 05:10:06;;;;;;;13.80;5.47;;;;;;;3.59;76.75;100946.38;5062477;28;20051;-85
2021/12/12 05:12:46;;;;;;;18.00;8.90;;;;;;;3.59;76.85;100950.78;5073914;28;20471;-85
2021/12/12 05:15:28;;;;;;;10.10;5.80;;;;;;;3.52;76.69;100963.31;5079069;28;20040;-85
2021/12/12 05:18:00;;;;;;;10.43;5.27;;;;;;;3.55;76.57;100965.81;5106569;27;20040;-85
2021/12/12 05:20:31;;;;;;;10.82;5.20;;;;;;;3.55;76.79;100968.44;5079880;28;20055;-86
2021/12/12 05:23:03;;;;;;;15.93;5.45;;;;;;;3.55;76.61;100965.81;5065557;28;20044;-85
2021/12/12 05:25:36;;;;;;;13.85;5.80;;;;;;;3.54;76.67;100976.38;5071584;28;20081;-85
2021/12/12 05:28:03;;;;;;;17.70;6.07;;;;;;;3.54;76.92;100984.25;5031589;28;20055;-85
2021/12/12 05:30:32;;;;;;;17.58;5.70;;;;;;;3.54;76.45;100986.91;5078846;28;20502;-86
2021/12/12 05:33:00;;;;;;;10.75;5.05;;;;;;;3.53;76.58;100987.78;5094056;28;20040;-86
2021/12/12 05:35:31;;;;;;;15.70;6.35;;;;;;;3.51;76.38;100992.25;5045236;28;20388;-86
2021/12/12 05:37:58;;;;;;;8.88;4.88;;;;;;;3.52;76.49;100986.94;5061599;28;20040;-85
2021/12/12 05:40:27;;;;;;;18.95;5.25;;;;;;;3.50;76.17;100977.41;5066562;28;20506;-85
2021/12/12 05:42:59;;;;;;;13.65;4.95;;;;;;;3.48;76.18;100982.72;5085273;28;20044;-85
2021/12/12 05:45:27;;;;;;;7.50;4.40;;;;;;;3.48;76.13;100985.34;5094470;28;20049;-86
2021/12/12 05:47:53;;;;;;;12.27;5.05;;;;;;;3.46;76.16;100977.56;5064403;28;20138;-83
2021/12/12 05:50:21;;;;;;;10.93;4.88;;;;;;;3.44;75.93;100982.00;5063067;28;20052;-85
2021/12/12 05:52:48;;;;;;;12.88;5.00;;;;;;;3.42;76.16;100986.47;5078982;28;20052;-85
2021/12/12 05:55:16;;;;;;;12.75;4.97;;;;;;;3.42;75.98;100994.34;5084876;28;20484;-84
2021/12/12 05:57:44;;;;;;;12.20;4.55;;;;;;;3.41;75.75;100990.00;5076332;28;20051;-85
2021/12/12 06:00:16;;;;;;;13.65;5.13;;;;;;;3.38;75.61;100982.22;5077528;28;20372;-85
2021/12/12 06:02:44;;;;;;;17.58;5.55;;;;;;;3.38;75.78;100994.50;5088206;28;20097;-85
2021/12/12 06:05:11;;;;;;;8.02;4.72;;;;;;;3.38;75.68;101002.38;5066982;28;20385;-85
2021/12/12 06:07:38;;;;;;;9.20;5.13;;;;;;;3.36;75.77;100999.84;5090372;28;20040;-85
2021/12/12 06:10:09;;;;;;;10.55;4.43;;;;;;;3.35;75.75;100999.88;5061801;28;20118;-85
2021/12/12 06:12:37;;;;;;;9.10;4.03;;;;;;;3.35;75.95;101005.13;5060512;28;20044;-85
2021/12/12 06:15:10;;;;;;;13.13;4.30;;;;;;;3.34;76.06;101003.44;5062775;28;20040;-86
2021/12/12 06:17:38;;;;;;;9.05;4.35;;;;;;;3.33;75.99;101013.06;5075360;28;20048;-86
2021/12/12 06:20:07;;;;;;;12.50;4.70;;;;;;;3.32;75.91;101011.38;5060961;28;20060;-85
2021/12/12 06:22:34;;;;;;;10.30;4.25;;;;;;;3.32;75.90;101000.03;5065031;28;20048;-85
2021/12/12 06:25:04;;;;;;;9.25;4.63;;;;;;;3.30;75.83;101007.09;5078151;28;20127;-85
2021/12/12 06:28:22;;;;;;;12.65;4.72;;;;;;;3.21;75.82;101009.16;5064355;28;20079;-86
2021/12/12 06:30:49;;;;;;;12.82;4.78;;;;;;;3.26;75.81;101012.47;4976820;28;20442;-85
2021/12/12 06:33:16;;;;;;;16.25;4.80;;;;;;;3.26;75.79;101016.88;5058466;28;20125;-85
2021/12/12 06:35:44;;;;;;;11.52;4.38;;;;;;;3.26;75.63;101019.50;5080796;28;20044;-85
2021/12/12 06:38:12;;;;;;;11.27;4.78;;;;;;;3.24;75.64;101023.94;5069463;28;20040;-85
2021/12/12 06:44:32;;;;;;;9.02;4.63;;;;;;;3.15;75.36;101027.75;5031568;28;20032;-85
2021/12/12 06:47:00;;;;;;;;;;;;;;;3.03;75.70;101031.72;5080236;28;20040;-85
2021/12/12 06:49:27;;;;;;;10.50;5.57;;;;;;;3.12;75.67;101035.75;5079669;28;20291;-85
2021/12/12 06:51:57;;;;;;;9.93;5.25;;;;;;;3.13;75.67;101039.25;5094023;28;20115;-85
2021/12/12 06:58:57;;;;;;;14.75;5.78;;;;;;;3.07;75.64;101048.19;5058262;28;20024;-83
2021/12/12 07:01:30;;;;;;;9.32;5.10;;;;;;;3.07;75.63;101042.09;5093767;28;20127;-83
2021/12/12 07:04:00;;;;;;;10.27;5.20;;;;;;;3.08;75.70;101033.31;5063276;28;20048;-83
2021/12/12 07:06:29;;;;;;;11.05;5.55;;;;;;;3.10;75.56;101039.34;5075020;28;20051;-84
2021/12/12 07:08:58;;;;;;;11.63;5.57;;;;;;;3.08;75.59;101028.06;5056940;28;20044;-84
2021/12/12 07:11:27;;;;;;;11.18;4.85;;;;;;;3.10;75.51;101036.72;5054882;28;20727;-83
2021/12/12 07:13:54;;;;;;;12.70;5.68;;;;;;;3.09;75.63;101033.25;5063392;28;20051;-84
2021/12/12 07:16:22;;;;;;;11.80;5.18;;;;;;;3.08;75.69;101038.56;5063964;28;20040;-84
2021/12/12 07:18:51;;;;;;;15.25;5.70;;;;;;;3.08;75.72;101039.44;5063350;28;20036;-84
2021/12/12 07:21:18;;;;;;;18.38;6.40;;;;;;;3.08;75.81;101043.81;5083949;28;20044;-83
2021/12/12 07:23:49;;;;;;;15.68;6.15;;;;;;;3.09;75.56;101056.88;5097443;28;20668;-81
2021/12/12 07:26:17;;;;;;;13.10;5.70;;;;;;;3.08;75.94;101052.56;5078084;28;20063;-82
2021/12/12 07:28:45;;;;;;;11.73;6.20;;;;;;;3.06;75.72;101050.91;5092785;28;20090;-84
2021/12/12 07:31:17;;;;;;;12.10;5.50;;;;;;;3.06;75.62;101057.00;5077315;28;20449;-84
2021/12/12 07:33:46;;;;;;;13.20;6.10;;;;;;;3.04;75.66;101046.56;5077811;28;20044;-83
2021/12/12 07:36:16;;;;;;;14.45;6.13;;;;;;;3.03;75.35;101049.25;5070667;28;20059;-84
2021/12/12 07:38:45;;;;;;;17.27;6.25;;;;;;;3.02;75.48;101051.00;5076198;28;20070;-83
2021/12/12 07:41:14;;;;;;;13.63;5.70;;;;;;;3.02;75.25;101042.28;5077860;28;20486;-83
2021/12/12 07:43:40;;;;;;;9.27;5.28;;;;;;;3.02;75.54;101045.75;5080568;28;20052;-83
2021/12/12 07:46:07;;;;;;;14.27;6.13;;;;;;;3.01;75.58;101048.44;5072988;28;20085;-84
2021/12/12 07:48:35;;;;;;;8.30;5.25;;;;;;;3.01;75.34;101048.44;5076880;28;20406;-84
2021/12/12 07:51:03;;;;;;;12.98;5.03;;;;;;;3.01;75.55;101041.44;5076791;28;20044;-83
2021/12/12 07:53:30;;;;;;;15.55;5.35;;;;;;;3.02;75.59;101050.16;5092623;28;20056;-83
2021/12/12 07:55:57;;;;;;;12.07;5.10;;;;;;;3.02;75.73;101055.41;5075972;28;20051;-84
2021/12/12 07:58:25;;;;;;;10.60;5.90;;;;;;;3.01;75.50;101051.91;5077996;28;20403;-83
2021/12/12 08:00:57;;;;;;;11.43;5.18;;;;;;;3.00;75.39;101058.09;5042619;28;20047;-84
2021/12/12 08:03:28;;;;;;;11.43;6.32;;;;;;;3.01;75.45;101061.56;5059999;28;20075;-83
2021/12/12 08:05:56;;;;;;;10.25;5.63;;;;;;;3.01;75.54;101059.78;5077669;28;20080;-84
2021/12/12 08:08:24;;;;;;;10.50;5.65;;;;;;;3.00;75.44;101063.34;5076428;28;20048;-83
2021/12/12 08:10:51;;;;;;;12.05;5.60;;;;;;;2.99;75.64;101069.47;5080773;28;20044;-84
2021/12/12 08:13:18;;;;;;;12.98;5.70;;;;;;;3.00;75.66;101068.59;5080305;28;20146;-84
2021/12/12 08:15:45;;;;;;;12.10;4.90;;;;;;;2.99;75.44;101072.09;5054826;28;20963;-84
2021/12/12 08:18:15;;;;;;;14.40;6.07;;;;;;;2.99;75.73;101068.63;5071059;28;20556;-83
2021/12/12 08:20:47;;;;;;;9.75;4.95;;;;;;;2.98;75.70;101069.56;5079843;28;20039;-83
2021/12/12 08:23:15;;;;;;;12.55;6.03;;;;;;;2.99;75.66;101073.88;5068992;28;20448;-82
2021/12/12 08:25:43;;;;;;;18.08;5.47;;;;;;;2.98;75.68;101073.03;5098491;28;20046;-84
2021/12/12 08:28:10;;;;;;;14.35;5.95;;;;;;;2.99;75.79;101071.25;5078427;28;20090;-83
2021/12/12 08:30:38;;;;;;;10.57;6.15;;;;;;;3.00;75.55;101067.72;5073193;28;20040;-84
2021/12/12 08:33:06;;;;;;;8.55;5.63;;;;;;;3.00;75.57;101067.72;5078509;28;20442;-84
2021/12/12 08:35:34;;;;;;;11.30;6.00;;;;;;;2.99;75.54;101074.72;5098925;27;20035;-84
2021/12/12 08:38:02;;;;;;;17.90;6.60;;;;;;;3.00;75.74;101075.59;5070293;28;20048;-83
2021/12/12 08:40:33;;;;;;;14.63;6.07;;;;;;;2.99;75.69;101079.13;5089754;28;20052;-84
2021/12/12 08:43:00;;;;;;;14.82;6.07;;;;;;;2.99;75.71;101073.88;5076384;28;20407;-84
2021/12/12 08:45:30;;;;;;;11.05;6.13;;;;;;;2.98;75.70;101078.28;5076695;28;20376;-84
2021/12/12 08:48:00;;;;;;;13.23;6.15;;;;;;;2.99;75.77;101077.34;5071779;28;20507;-82
2021/12/12 08:50:30;;;;;;;13.05;5.53;;;;;;;2.98;75.79;101080.91;5091462;28;20040;-81
2021/12/12 08:52:58;;;;;;;15.80;6.40;;;;;;;2.99;75.76;101087.00;5064315;28;20098;-84
2021/12/12 08:55:32;;;;;;;16.10;6.25;;;;;;;2.98;75.88;101094.03;5074096;28;20047;-83
2021/12/12 08:58:13;;;;;;;12.98;6.95;;;;;;;2.99;75.86;101097.50;5060163;28;20050;-83
2021/12/12 09:00:43;;;;;;;17.73;7.53;;;;;;;2.97;75.76;101091.44;5066610;28;20055;-83
2021/12/12 09:03:10;;;;;;;16.38;7.45;;;;;;;2.98;76.02;101094.03;5058188;28;20036;-83
2021/12/12 09:05:41;;;;;;;14.70;7.53;;;;;;;2.98;75.98;101086.16;5077336;28;20491;-84
2021/12/12 09:08:28;;;;;;;20.02;7.82;;;;;;;2.95;75.97;101086.28;5050709;28;20726;-83
2021/12/12 09:10:59;;;;;;;19.60;8.32;;;;;;;2.98;75.86;101080.06;5048120;28;20058;-84
2021/12/12 09:13:30;;;;;;;20.67;8.73;;;;;;;3.00;76.08;101086.06;5059064;28;20040;-84
2021/12/12 09:16:20;;;;;;;17.50;9.75;;;;;;;2.93;76.03;101074.97;5079082;28;20048;-84
2021/12/12 09:18:53;;;;;;;25.08;11.02;;;;;;;2.98;76.02;101056.44;5049080;28;20039;-83
2021/12/12 09:21:26;;;;;;;16.38;9.52;;;;;;;2.99;76.43;101058.13;5058465;28;20051;-84
2021/12/12 09:24:03;;;;;;;23.55;10.13;;;;;;;3.00;76.39;101065.97;5076952;28;20040;-83
2021/12/12 09:26:34;;;;;;;22.60;9.90;;;;;;;3.02;76.48;101068.50;5017212;28;20051;-83
2021/12/12 09:29:19;;;;;;;18.83;9.40;;;;;;;2.98;76.25;101072.19;5021864;28;21601;-84
2021/12/12 09:31:58;;;;;;;24.17;9.43;;;;;;;2.99;76.36;101071.25;5037528;28;20068;-84
2021/12/12 09:34:32;;;;;;;21.85;10.10;;;;;;;3.01;76.32;101072.06;5037258;28;20051;-84
2021/12/12 09:37:20;;;;;;;18.00;10.80;;;;;;;3.00;76.27;101072.97;5038145;28;20380;-84
2021/12/12 09:40:01;;;;;;;21.13;10.95;;;;;;;2.99;76.29;101074.72;5035403;28;20049;-83
2021/12/12 09:42:37;;;;;;;22.92;11.20;;;;;;;3.02;76.52;101079.00;5016048;28;20110;-83
2021/12/12 09:45:46;;;;;;;24.13;11.60;;;;;;;2.96;76.76;101076.63;5022261;28;20416;-82
2021/12/12 09:52:03;;;;;;;21.38;10.68;;;;;;;2.94;76.61;101076.66;4935607;28;20090;-83
2021/12/12 09:54:46;;;;;;;22.85;10.32;;;;;;;2.97;76.79;101076.56;5010153;28;20503;-83
2021/12/12 09:57:23;;;;;;;21.45;11.02;;;;;;;2.97;76.70;101073.94;5048275;28;20403;-84
2021/12/12 09:59:58;;;;;;;25.05;11.40;;;;;;;2.98;76.87;101067.78;5060415;28;20043;-83
2021/12/12 10:02:52;;;;;;;18.88;11.27;;;;;;;2.97;76.83;101073.06;5074005;28;20552;-84
2021/12/12 10:05:42;;;;;;;22.90;11.10;;;;;;;3.03;76.95;101075.50;5016915;28;20036;-83
2021/12/12 10:08:35;;;;;;;21.52;11.15;;;;;;;2.98;76.64;101067.78;5026147;28;20094;-84
2021/12/12 10:11:04;;;;;;;27.37;11.63;;;;;;;3.03;76.94;101065.84;5063289;28;20059;-84
2021/12/12 10:13:39;;;;;;;23.20;11.27;;;;;;;3.06;77.08;101069.28;5077545;28;20836;-83
2021/12/12 10:16:29;;;;;;;17.05;9.75;;;;;;;3.01;77.23;101066.81;5062542;28;20406;-83
2021/12/12 10:19:03;;;;;;;22.15;11.55;;;;;;;3.08;77.29;101067.41;4999525;28;20056;-84
2021/12/12 10:21:47;;;;;;;23.13;11.57;;;;;;;3.05;76.88;101063.16;5042367;28;20048;-83
2021/12/12 10:24:26;;;;;;;18.58;9.70;;;;;;;3.06;77.21;101062.25;5017609;28;20048;-83
2021/12/12 10:27:03;;;;;;;19.50;9.23;;;;;;;3.08;77.10;101063.06;5046026;28;20052;-84
2021/12/12 10:29:38;;;;;;;22.83;10.55;;;;;;;3.13;77.33;101052.34;5047384;28;20059;-83
2021/12/12 10:32:12;;;;;;;19.92;11.32;;;;;;;3.11;77.50;101036.69;5077304;28;20430;-84
2021/12/12 10:34:47;;;;;;;30.95;13.25;;;;;;;3.13;77.34;101042.75;5075280;28;20041;-83
2021/12/12 10:37:18;;;;;;;19.55;10.65;;;;;;;3.17;77.78;101046.94;5076891;28;20429;-84
2021/12/12 10:39:55;;;;;;;25.83;12.02;;;;;;;3.15;77.68;101040.88;5059932;28;20051;-83
2021/12/12 10:42:34;;;;;;;24.45;12.65;;;;;;;3.15;77.67;101033.00;5044696;28;20044;-83
2021/12/12 10:45:26;;;;;;;21.33;12.27;;;;;;;3.13;77.79;101040.13;5051763;28;20040;-83
2021/12/12 10:47:54;;;;;;;18.20;9.75;;;;;;;3.19;77.79;101033.78;5012162;28;20052;-82
2021/12/12 10:50:46;;;;;;;22.33;10.00;;;;;;;3.19;77.73;101024.13;5080734;28;20054;-84
2021/12/12 10:53:16;;;;;;;18.85;9.35;;;;;;;3.22;78.16;101026.63;5065178;28;20526;-82
2021/12/12 10:55:48;;;;;;;21.92;10.25;;;;;;;3.23;77.84;101028.34;5078949;28;20055;-83
2021/12/12 10:58:35;;;;;;;21.87;10.23;;;;;;;3.20;77.93;101030.22;5060500;28;20093;-83
2021/12/12 11:01:22;;;;;;;22.00;9.75;;;;;;;3.20;77.97;101031.06;5052964;28;21114;-83
2021/12/12 11:04:16;;;;;;;17.33;9.63;;;;;;;3.22;78.24;101031.03;5031733;28;20049;-83
2021/12/12 11:06:56;;;;;;;;;;;;;;;3.13;78.51;101027.00;5014858;28;20051;-84
2021/12/12 11:09:38;;;;;;;17.17;8.55;;;;;;;3.22;78.21;101029.25;5064050;28;19927;-83
2021/12/12 11:12:18;;;;;;;16.77;8.43;;;;;;;3.24;78.15;101026.56;5062915;28;20992;-84
2021/12/12 11:14:56;;;;;;;16.83;7.78;;;;;;;3.23;78.05;101017.84;5043752;28;20074;-84
2021/12/12 11:17:32;;;;;;;17.33;8.57;;;;;;;3.26;78.10;101016.88;5063168;27;20048;-84
2021/12/12 11:20:08;;;;;;;18.38;8.95;;;;;;;3.29;78.24;101008.03;5045652;28;20097;-84
2021/12/12 11:22:42;;;;;;;17.90;8.63;;;;;;;3.31;78.36;101003.53;5080138;28;20123;-84
2021/12/12 11:25:19;;;;;;;19.50;9.00;;;;;;;3.31;78.33;100999.16;5076019;28;20086;-84
2021/12/12 11:27:51;;;;;;;15.20;8.45;;;;;;;3.35;78.35;100994.63;5080823;28;20445;-84
2021/12/12 11:30:23;;;;;;;12.43;7.80;;;;;;;3.32;78.43;101000.88;5018283;28;20044;-84
2021/12/12 11:32:52;;;;;;;17.35;8.20;;;;;;;3.33;78.76;100993.84;5069935;27;20126;-83
2021/12/12 11:35:21;;;;;;;17.10;8.05;;;;;;;3.36;78.56;100997.22;5093517;28;20110;-83
2021/12/12 11:37:52;;;;;;;16.60;9.13;;;;;;;3.34;78.66;100998.19;5063342;28;20469;-83
2021/12/12 11:40:32;;;;;;;18.90;9.00;;;;;;;3.35;78.22;100995.50;5081555;28;20048;-83
2021/12/12 11:43:24;;;;;;;15.05;8.80;;;;;;;3.32;78.61;100997.41;5053875;28;20058;-84
2021/12/12 11:45:57;;;;;;;21.38;10.27;;;;;;;3.40;78.66;100995.31;5026930;28;20046;-83
2021/12/12 11:48:36;;;;;;;19.58;9.57;;;;;;;3.41;78.54;100997.00;5078601;28;20127;-84
2021/12/12 11:51:29;;;;;;;22.08;9.20;;;;;;;3.36;78.86;100991.97;5049003;28;20047;-83
2021/12/12 11:54:33;;;;;;;18.83;10.05;;;;;;;3.36;78.66;100983.22;5039802;28;20407;-84
2021/12/12 11:57:25;;;;;;;17.85;9.80;;;;;;;3.37;78.98;100985.78;5043369;28;20047;-84
2021/12/12 12:00:16;;;;;;;19.30;10.52;;;;;;;3.42;79.08;100983.84;5034257;28;20089;-83
2021/12/12 12:02:52;;;;;;;17.85;9.18;;;;;;;3.45;78.90;100995.97;5073061;28;20445;-83
2021/12/12 12:05:34;;;;;;;18.08;9.73;;;;;;;3.43;78.94;100988.16;5081057;28;20046;-83
2021/12/12 12:08:22;;;;;;;18.30;10.20;;;;;;;3.43;79.23;100984.69;5057166;28;20047;-84
2021/12/12 12:11:18;;;;;;;19.50;9.93;;;;;;;3.47;79.12;100984.50;5041539;28;20093;-84
2021/12/12 12:14:23;;;;;;;19.30;9.55;;;;;;;3.52;79.18;100983.47;5014240;28;20043;-83
2021/12/12 12:17:12;;;;;;;17.25;8.93;;;;;;;3.57;79.33;100973.63;5011767;28;20051;-84
2021/12/12 12:20:23;;;;;;;22.85;9.73;;;;;;;3.46;79.85;100969.66;5054678;28;20040;-84
2021/12/12 12:23:06;;;;;;;20.30;9.75;;;;;;;3.49;79.84;100971.31;4988387;28;20739;-84
2021/12/12 12:28:29;;;;;;;14.50;7.50;;;;;;;3.64;79.67;100969.84;4999859;28;20044;-83
2021/12/12 12:31:34;;;;;;;16.75;7.85;;;;;;;3.54;79.69;100969.34;5047563;28;20044;-83
2021/12/12 12:34:38;;;;;;;17.13;7.60;;;;;;;3.55;79.67;100971.06;5032245;28;20070;-83
2021/12/12 12:37:23;;;;;;;;;;;;;;;3.51;80.20;100966.88;4953823;28;20046;-83
2021/12/12 12:40:36;;;;;;;13.88;5.97;;;;;;;3.54;80.46;100969.34;4974285;28;20291;-84
2021/12/12 12:43:40;;;;;;;7.55;4.20;;;;;;;3.59;79.98;100956.91;4943775;28;20575;-84
2021/12/12 12:46:37;;;;;;;9.52;4.22;;;;;;;3.63;79.95;100953.19;4974718;28;20052;-84